createdAt,value
2023-07-20T00:01:00.596Z,99426.12
2023-07-20T00:03:41.157Z,99423.58
2023-07-20T00:06:12.871Z,99422.27
2023-07-20T00:08:45.065Z,99421.35
2023-07-20T00:11:16.848Z,99421.31
2023-07-20T00:13:50.167Z,99417.02
2023-07-20T00:16:22.234Z,99412.38
2023-07-20T00:18:54.327Z,99412.89
2023-07-20T00:21:26.800Z,99414.61
2023-07-20T00:23:58.963Z,99415.65
2023-07-20T00:26:30.968Z,99414.70
2023-07-20T00:29:02.665Z,99409.07
2023-07-20T00:31:36.133Z,99415.73
2023-07-20T00:34:08.489Z,99418.22
2023-07-20T00:36:40.241Z,99411.85
2023-07-20T00:39:11.833Z,99413.68
2023-07-20T00:41:43.518Z,99412.67
2023-07-20T00:44:15.430Z,99414.77
2023-07-20T00:46:47.860Z,99413.73
2023-07-20T00:49:22.387Z,99411.44
2023-07-20T00:51:54.656Z,99406.30
2023-07-20T00:54:26.869Z,99405.45
2023-07-20T00:57:00.002Z,99407.89
2023-07-20T00:59:32.144Z,99407.18
2023-07-20T01:02:04.021Z,99407.92
2023-07-20T01:04:37.595Z,99406.40
2023-07-20T01:07:16.881Z,99403.64
2023-07-20T01:09:54.905Z,99404.03
2023-07-20T01:12:32.627Z,99399.76
2023-07-20T01:15:05.695Z,99404.60
2023-07-20T01:17:38.515Z,99405.48
2023-07-20T01:20:15.982Z,99409.00
2023-07-20T01:23:13.810Z,99411.61
2023-07-20T01:26:04.507Z,99410.34
2023-07-20T01:28:57.076Z,99406.82
2023-07-20T01:31:30.327Z,99404.70
2023-07-20T01:34:04.491Z,99404.05
2023-07-20T01:36:40.103Z,99407.71
2023-07-20T01:39:12.979Z,99406.64
2023-07-20T01:41:45.237Z,99407.83
2023-07-20T01:44:17.859Z,99411.98
2023-07-20T01:46:49.661Z,99412.85
2023-07-20T01:49:21.855Z,99412.98
2023-07-20T01:51:53.512Z,99415.70
2023-07-20T01:54:25.129Z,99417.41
2023-07-20T01:56:57.007Z,99411.61
2023-07-20T01:59:29.331Z,99411.70
2023-07-20T02:02:01.085Z,99416.63
2023-07-20T02:04:33.288Z,99408.64
2023-07-20T02:07:05.176Z,99411.96
2023-07-20T02:09:36.895Z,99415.30
2023-07-20T02:12:10.022Z,99418.40
2023-07-20T02:14:42.329Z,99420.64
2023-07-20T02:17:14.752Z,99423.54
2023-07-20T02:19:46.507Z,99424.64
2023-07-20T02:22:18.432Z,99425.11
2023-07-20T02:24:50.569Z,99427.13
2023-07-20T02:27:22.190Z,99425.45
2023-07-20T02:29:54.229Z,99426.30
2023-07-20T02:32:25.950Z,99425.80
2023-07-20T02:34:57.825Z,99423.39
2023-07-20T02:37:29.489Z,99423.25
2023-07-20T02:40:01.979Z,99419.59
2023-07-20T02:42:32.088Z,99423.27
2023-07-20T02:45:05.436Z,99426.95
2023-07-20T02:47:37.393Z,99426.17
2023-07-20T02:50:11.185Z,99423.99
2023-07-20T02:52:42.832Z,99424.42
2023-07-20T02:55:14.746Z,99424.96
2023-07-20T02:57:46.470Z,99426.40
2023-07-20T03:00:20.465Z,99423.96
2023-07-20T03:02:54.150Z,99422.82
2023-07-20T03:05:26.440Z,99425.21
2023-07-20T03:08:04.323Z,99427.75
2023-07-20T03:10:40.407Z,99427.39
2023-07-20T03:13:12.073Z,99430.83
2023-07-20T03:15:43.986Z,99427.65
2023-07-20T03:18:15.672Z,99425.80
2023-07-20T03:20:47.797Z,99422.38
2023-07-20T03:23:19.460Z,99424.65
2023-07-20T03:25:51.218Z,99424.16
2023-07-20T03:28:22.862Z,99428.52
2023-07-20T03:30:58.135Z,99426.74
2023-07-20T03:33:31.246Z,99426.89
2023-07-20T03:36:03.241Z,99420.35
2023-07-20T03:38:35.021Z,99421.70
2023-07-20T03:41:06.687Z,99423.45
2023-07-20T03:43:38.542Z,99421.52
2023-07-20T03:46:10.275Z,99424.81
2023-07-20T03:48:42.211Z,99430.79
2023-07-20T03:51:14.166Z,99430.80
2023-07-20T03:53:45.963Z,99430.95
2023-07-20T03:56:17.754Z,99431.90
2023-07-20T03:58:49.601Z,99432.56
2023-07-20T04:01:21.832Z,99435.84
2023-07-20T04:03:53.906Z,99439.67
2023-07-20T04:06:26.024Z,99440.86
2023-07-20T04:08:56.671Z,99444.48
2023-07-20T04:11:28.784Z,99452.04
2023-07-20T04:14:00.442Z,99454.05
2023-07-20T04:16:33.634Z,99452.72
2023-07-20T04:19:05.317Z,99456.91
2023-07-20T04:21:41.884Z,99455.77
2023-07-20T04:24:13.857Z,99455.23
2023-07-20T04:26:45.465Z,99454.58
2023-07-20T04:29:17.419Z,99450.31
2023-07-20T04:31:49.403Z,99449.47
2023-07-20T04:34:21.140Z,99450.70
2023-07-20T04:36:52.738Z,99452.80
2023-07-20T04:39:31.695Z,99446.25
2023-07-20T04:42:04.958Z,99451.43
2023-07-20T04:44:35.201Z,99448.23
2023-07-20T04:47:09.710Z,99452.13
2023-07-20T04:49:41.855Z,99449.41
2023-07-20T04:52:13.590Z,99454.48
2023-07-20T04:54:45.254Z,99453.88
2023-07-20T04:57:17.089Z,99448.98
2023-07-20T04:59:48.668Z,99453.40
2023-07-20T05:02:20.490Z,99453.58
2023-07-20T05:04:52.284Z,99449.84
2023-07-20T05:07:24.033Z,99449.34
2023-07-20T05:09:55.715Z,99452.08
2023-07-20T05:12:27.440Z,99447.59
2023-07-20T05:14:59.440Z,99450.45
2023-07-20T05:17:31.612Z,99448.66
2023-07-20T05:20:05.123Z,99444.33
2023-07-20T05:22:36.721Z,99449.07
2023-07-20T05:25:11.365Z,99451.83
2023-07-20T05:27:43.415Z,99452.79
2023-07-20T05:30:15.771Z,99450.84
2023-07-20T05:32:52.143Z,99449.05
2023-07-20T05:35:23.948Z,99446.27
2023-07-20T05:37:56.407Z,99449.67
2023-07-20T05:40:28.226Z,99442.46
2023-07-20T05:43:01.840Z,99446.63
2023-07-20T05:45:33.492Z,99449.38
2023-07-20T05:48:05.388Z,99451.63
2023-07-20T05:50:37.150Z,99453.52
2023-07-20T05:53:08.840Z,99456.66
2023-07-20T05:55:41.335Z,99453.56
2023-07-20T05:58:13.170Z,99456.44
2023-07-20T06:00:44.890Z,99452.92
2023-07-20T06:03:17.591Z,99452.82
2023-07-20T06:05:49.358Z,99453.77
2023-07-20T06:08:21.322Z,99458.20
2023-07-20T06:10:55.494Z,99460.61
2023-07-20T06:13:27.815Z,99456.83
2023-07-20T06:16:00.100Z,99455.71
2023-07-20T06:18:32.540Z,99459.66
2023-07-20T06:21:04.292Z,99459.98
2023-07-20T06:23:35.953Z,99462.13
2023-07-20T06:26:07.914Z,99465.35
2023-07-20T06:28:39.602Z,99464.65
2023-07-20T06:31:11.277Z,99460.77
2023-07-20T06:33:43.158Z,99457.15
2023-07-20T06:36:15.339Z,99461.02
2023-07-20T06:40:32.699Z,99459.10
2023-07-20T06:44:13.436Z,99454.77
2023-07-20T06:46:46.287Z,99456.52
2023-07-20T06:49:28.005Z,99457.86
2023-07-20T06:52:00.504Z,99457.23
2023-07-20T06:54:35.663Z,99456.71
2023-07-20T07:02:21.340Z,99466.39
2023-07-20T07:05:00.568Z,99466.95
2023-07-20T07:07:33.281Z,99470.57
2023-07-20T07:10:06.359Z,99466.98
2023-07-20T07:12:38.306Z,99470.25
2023-07-20T07:15:12.230Z,99474.64
2023-07-20T07:17:44.762Z,99481.25
2023-07-20T07:22:54.304Z,99472.60
2023-07-20T07:25:26.206Z,99472.97
2023-07-20T07:27:58.197Z,99471.88
2023-07-20T07:30:30.825Z,99473.29
2023-07-20T07:33:03.284Z,99476.10
2023-07-20T07:35:35.120Z,99477.82
2023-07-20T07:38:21.065Z,99477.00
2023-07-20T07:41:00.439Z,99473.77
2023-07-20T07:43:31.954Z,99477.09
2023-07-20T07:46:04.997Z,99468.19
2023-07-20T07:48:36.879Z,99474.81
2023-07-20T07:51:08.494Z,99476.64
2023-07-20T07:53:41.292Z,99476.27
2023-07-20T07:56:13.433Z,99473.41
2023-07-20T07:58:45.087Z,99477.23
2023-07-20T08:01:18.036Z,99477.60
2023-07-20T08:03:50.380Z,99475.91
2023-07-20T08:06:22.499Z,99477.56
2023-07-20T08:08:54.618Z,99477.70
2023-07-20T08:11:27.125Z,99478.42
2023-07-20T08:13:57.505Z,99474.72
2023-07-20T08:16:30.237Z,99480.05
2023-07-20T08:19:03.864Z,99484.30
2023-07-20T08:21:35.705Z,99478.64
2023-07-20T08:24:08.785Z,99480.55
2023-07-20T08:26:40.398Z,99483.27
2023-07-20T08:29:12.234Z,99484.25
2023-07-20T08:31:44.258Z,99481.36
2023-07-20T08:34:29.807Z,99484.52
2023-07-20T08:37:03.802Z,99482.39
2023-07-20T08:39:33.883Z,99479.27
2023-07-20T08:42:07.416Z,99488.09
2023-07-20T08:44:40.294Z,99489.49
2023-07-20T08:47:14.695Z,99485.89
2023-07-20T08:49:47.302Z,99482.89
2023-07-20T08:52:19.073Z,99484.50
2023-07-20T08:54:51.489Z,99489.52
2023-07-20T08:57:23.347Z,99486.00
2023-07-20T08:59:56.528Z,99480.55
2023-07-20T09:02:30.727Z,99435.05
2023-07-20T09:05:02.533Z,99473.13
2023-07-20T09:07:36.624Z,99470.80
2023-07-20T09:10:10.105Z,99470.73
2023-07-20T09:12:43.285Z,99469.33
2023-07-20T09:15:15.425Z,99474.08
2023-07-20T09:17:51.203Z,99474.42
2023-07-20T09:20:24.058Z,99471.98
2023-07-20T09:22:55.704Z,99480.20
2023-07-20T09:25:29.906Z,99483.29
2023-07-20T09:28:06.389Z,99483.69
2023-07-20T09:36:18.945Z,99490.05
2023-07-20T09:44:49.021Z,99490.40
2023-07-20T09:46:59.584Z,99491.15
2023-07-20T09:54:59.706Z,99496.59
2023-07-20T09:57:32.257Z,99495.80
2023-07-20T10:02:39.072Z,99498.42
2023-07-20T10:05:13.535Z,99497.30
2023-07-20T10:07:49.342Z,99500.67
2023-07-20T10:10:22.102Z,99499.42
2023-07-20T10:12:54.601Z,99501.00
2023-07-20T10:15:31.170Z,99499.55
2023-07-20T10:18:11.680Z,99494.98
2023-07-20T10:23:19.532Z,99485.91
2023-07-20T10:25:52.596Z,99485.38
2023-07-20T10:28:26.042Z,99487.77
2023-07-20T10:30:58.032Z,99491.52
2023-07-20T10:33:30.391Z,99480.83
2023-07-20T10:36:06.706Z,99486.35
2023-07-20T10:38:54.292Z,99481.09
2023-07-20T10:41:30.338Z,99471.63
2023-07-20T10:44:07.047Z,99470.60
2023-07-20T10:46:47.500Z,99464.91
2023-07-20T10:49:22.544Z,99462.54
2023-07-20T10:52:01.325Z,99462.71
2023-07-20T10:54:51.026Z,99468.39
2023-07-20T10:57:33.705Z,99469.29
2023-07-20T11:00:16.724Z,99467.05
2023-07-20T11:02:51.723Z,99469.73
2023-07-20T11:05:43.742Z,99469.98
2023-07-20T11:08:35.918Z,99474.85
2023-07-20T11:11:27.353Z,99476.00
2023-07-20T11:14:00.908Z,99474.89
2023-07-20T11:16:38.688Z,99482.40
2023-07-20T11:22:01.651Z,99488.79
2023-07-20T11:24:36.112Z,99479.34
2023-07-20T11:27:09.466Z,99481.34
2023-07-20T11:29:41.932Z,99483.20
2023-07-20T11:32:13.511Z,99483.80
2023-07-20T11:34:50.977Z,99483.52
2023-07-20T11:37:23.041Z,99487.23
2023-07-20T11:39:59.653Z,99489.14
2023-07-20T11:45:08.599Z,99486.66
2023-07-20T11:47:45.796Z,99482.66
2023-07-20T11:50:17.564Z,99484.33
2023-07-20T11:52:49.628Z,99485.88
2023-07-20T11:55:21.923Z,99486.52
2023-07-20T11:58:08.818Z,99476.59
2023-07-20T12:00:46.372Z,99476.34
2023-07-20T12:03:18.131Z,99468.48
2023-07-20T12:06:01.259Z,99464.73
2023-07-20T12:08:34.756Z,99461.02
2023-07-20T12:11:06.371Z,99456.73
2023-07-20T12:13:44.135Z,99456.54
2023-07-20T12:16:17.075Z,99455.38
2023-07-20T12:18:49.004Z,99453.33
2023-07-20T12:21:23.016Z,99443.04
2023-07-20T12:23:54.614Z,99450.97
2023-07-20T12:26:27.191Z,99445.78
2023-07-20T12:28:59.125Z,99441.45
2023-07-20T12:31:32.801Z,99439.69
2023-07-20T12:34:05.430Z,99435.83
2023-07-20T12:36:37.041Z,99438.11
2023-07-20T12:39:08.923Z,99428.02
2023-07-20T12:41:40.491Z,99438.60
2023-07-20T12:44:12.459Z,99442.30
2023-07-20T12:46:44.451Z,99441.46
2023-07-20T12:49:16.171Z,99441.45
2023-07-20T12:51:47.743Z,99435.82
2023-07-20T12:54:19.500Z,99440.08
2023-07-20T12:59:26.425Z,99439.98
2023-07-20T13:01:58.079Z,99437.94
2023-07-20T13:04:30.226Z,99443.84
2023-07-20T13:09:54.306Z,99437.57
2023-07-20T13:12:25.877Z,99442.71
2023-07-20T13:14:58.049Z,99443.68
2023-07-20T13:17:30.092Z,99435.75
2023-07-20T13:20:01.861Z,99442.36
2023-07-20T13:22:33.472Z,99444.53
2023-07-20T13:25:06.125Z,99444.59
2023-07-20T13:27:38.956Z,99446.88
2023-07-20T13:30:17.779Z,99446.50
2023-07-20T13:32:51.147Z,99445.41
2023-07-20T13:35:23.314Z,99443.91
2023-07-20T13:37:54.980Z,99443.02
2023-07-20T13:40:26.592Z,99444.78
2023-07-20T13:42:58.922Z,99442.02
2023-07-20T13:45:31.359Z,99440.64
2023-07-20T13:48:04.105Z,99439.76
2023-07-20T13:50:42.000Z,99438.15
2023-07-20T13:58:25.505Z,99430.73
2023-07-20T14:00:57.256Z,99427.66
2023-07-20T14:03:28.989Z,99426.11
2023-07-20T14:08:35.855Z,99422.08
2023-07-20T14:13:47.679Z,99413.66
2023-07-20T14:16:20.687Z,99415.86
2023-07-20T14:18:53.574Z,99414.20
2023-07-20T14:21:26.032Z,99409.05
2023-07-20T14:24:01.712Z,99412.27
2023-07-20T14:26:34.341Z,99416.06
2023-07-20T14:29:05.335Z,99416.70
2023-07-20T14:31:36.950Z,99419.16
2023-07-20T14:34:08.860Z,99420.70
2023-07-20T14:36:42.791Z,99421.29
2023-07-20T14:39:14.661Z,99423.63
2023-07-20T14:41:46.641Z,99426.38
2023-07-20T14:44:18.482Z,99416.29
2023-07-20T14:47:06.615Z,99411.74
2023-07-20T14:49:42.233Z,99414.04
2023-07-20T14:52:16.860Z,99411.21
2023-07-20T14:54:48.689Z,99413.65
2023-07-20T14:57:20.588Z,99413.17
2023-07-20T14:59:52.392Z,99416.90
2023-07-20T15:02:24.305Z,99413.84
2023-07-20T15:04:56.862Z,99408.90
2023-07-20T15:07:29.061Z,99406.35
2023-07-20T15:09:59.619Z,99408.00
2023-07-20T15:12:31.373Z,99406.76
2023-07-20T15:15:11.414Z,99398.60
2023-07-20T15:17:44.401Z,99396.56
2023-07-20T15:20:17.434Z,99399.95
2023-07-20T15:22:50.821Z,99396.20
2023-07-20T15:25:23.550Z,99396.48
2023-07-20T15:27:56.936Z,99397.36
2023-07-20T15:35:40.022Z,99393.18
2023-07-20T15:38:11.622Z,99392.48
2023-07-20T15:40:46.413Z,99375.94
2023-07-20T15:43:22.044Z,99390.24
2023-07-20T15:46:05.248Z,99387.91
2023-07-20T15:48:39.478Z,99392.79
2023-07-20T15:51:13.457Z,99388.91
2023-07-20T15:53:43.671Z,99384.92
2023-07-20T15:56:15.532Z,99385.83
2023-07-20T15:58:47.756Z,99382.41
2023-07-20T16:01:19.483Z,99383.17
2023-07-20T16:03:51.394Z,99383.42
2023-07-20T16:06:22.934Z,99379.67
2023-07-20T16:08:54.874Z,99382.02
2023-07-20T16:11:27.765Z,99379.58
2023-07-20T16:14:03.133Z,99381.04
2023-07-20T16:16:36.174Z,99377.30
2023-07-20T16:19:08.274Z,99373.77
2023-07-20T16:21:40.254Z,99370.55
2023-07-20T16:24:12.425Z,99369.58
2023-07-20T16:26:45.100Z,99367.27
2023-07-20T16:34:27.089Z,99353.69
2023-07-20T16:37:00.755Z,99352.11
2023-07-20T16:39:32.416Z,99350.19
2023-07-20T16:42:07.001Z,99349.45
2023-07-20T16:44:39.629Z,99349.89
2023-07-20T16:47:11.762Z,99350.29
2023-07-20T16:49:43.754Z,99348.31
2023-07-20T16:52:15.507Z,99352.41
2023-07-20T16:54:47.062Z,99350.55
2023-07-20T16:57:19.524Z,99348.60
2023-07-20T16:59:50.229Z,99350.65
2023-07-20T17:02:22.681Z,99345.02
2023-07-20T17:04:55.330Z,99342.96
2023-07-20T17:07:27.443Z,99341.92
2023-07-20T17:09:59.472Z,99341.46
2023-07-20T17:12:31.105Z,99339.97
2023-07-20T17:15:02.903Z,99341.05
2023-07-20T17:17:35.260Z,99341.05
2023-07-20T17:22:46.471Z,99336.64
2023-07-20T17:30:29.556Z,99334.11
2023-07-20T17:33:01.393Z,99333.87
2023-07-20T17:35:33.508Z,99335.35
2023-07-20T17:40:39.828Z,99332.70
2023-07-20T17:43:11.490Z,99331.59
2023-07-20T17:45:43.415Z,99326.44
2023-07-20T17:48:15.101Z,99322.94
2023-07-20T17:50:47.423Z,99321.60
2023-07-20T17:53:19.013Z,99323.08
2023-07-20T17:55:50.672Z,99323.03
2023-07-20T17:58:24.264Z,99322.73
2023-07-20T18:00:59.582Z,99324.95
2023-07-20T18:03:31.656Z,99315.64
2023-07-20T18:06:08.823Z,99316.47
2023-07-20T18:08:42.277Z,99318.19
2023-07-20T18:11:13.959Z,99311.73
2023-07-20T18:13:45.532Z,99313.83
2023-07-20T18:16:17.113Z,99310.41
2023-07-20T18:18:48.679Z,99308.70
2023-07-20T18:21:20.568Z,99304.52
2023-07-20T18:23:52.448Z,99302.17
2023-07-20T18:26:23.982Z,99303.86
2023-07-20T18:28:55.518Z,99303.70
2023-07-20T18:31:27.641Z,99294.23
2023-07-20T18:34:00.936Z,99302.71
2023-07-20T18:36:32.508Z,99305.42
2023-07-20T18:39:05.640Z,99306.92
2023-07-20T18:41:37.638Z,99311.84
2023-07-20T18:44:09.445Z,99312.83
2023-07-20T18:46:41.114Z,99310.17
2023-07-20T18:49:12.699Z,99313.27
2023-07-20T18:51:44.268Z,99312.18
2023-07-20T18:54:15.996Z,99305.98
2023-07-20T18:56:47.598Z,99312.80
2023-07-20T18:59:19.531Z,99317.55
2023-07-20T19:01:51.303Z,99319.10
2023-07-20T19:04:25.911Z,99320.27
2023-07-20T19:06:57.750Z,99325.91
2023-07-20T19:09:29.746Z,99323.98
2023-07-20T19:12:01.768Z,99324.65
2023-07-20T19:14:33.407Z,99324.88
2023-07-20T19:17:05.630Z,99327.84
2023-07-20T19:19:37.883Z,99329.65
2023-07-20T19:22:09.526Z,99330.94
2023-07-20T19:24:41.803Z,99333.20
2023-07-20T19:27:13.705Z,99331.18
2023-07-20T19:29:45.446Z,99334.36
2023-07-20T19:32:17.387Z,99333.41
2023-07-20T19:34:49.280Z,99328.89
2023-07-20T19:37:21.140Z,99331.25
2023-07-20T19:39:53.102Z,99334.58
2023-07-20T19:42:25.579Z,99335.30
2023-07-20T19:44:57.704Z,99341.78
2023-07-20T19:47:30.200Z,99337.38
2023-07-20T19:50:02.538Z,99343.19
2023-07-20T19:52:34.202Z,99342.65
2023-07-20T19:55:07.074Z,99346.17
2023-07-20T19:57:40.466Z,99348.21
2023-07-20T20:00:14.411Z,99347.84
2023-07-20T20:05:21.825Z,99349.30
2023-07-20T20:07:53.812Z,99354.71
2023-07-20T20:10:26.681Z,99353.56
2023-07-20T20:12:59.091Z,99352.56
2023-07-20T20:15:30.727Z,99362.94
2023-07-20T20:18:02.500Z,99352.13
2023-07-20T20:20:35.735Z,99350.73
2023-07-20T20:23:19.518Z,99350.12
2023-07-20T20:25:51.784Z,99353.30
2023-07-20T20:28:25.417Z,99349.61
2023-07-20T20:30:57.778Z,99349.46
2023-07-20T20:33:29.543Z,99351.27
2023-07-20T20:36:03.308Z,99345.77
2023-07-20T20:38:35.498Z,99347.83
2023-07-20T20:41:09.074Z,99347.13
2023-07-20T20:43:40.677Z,99349.36
2023-07-20T20:46:14.323Z,99351.42
2023-07-20T20:48:47.119Z,99342.92
2023-07-20T20:51:19.142Z,99342.91
2023-07-20T20:53:51.204Z,99341.02
2023-07-20T20:56:23.423Z,99335.85
2023-07-20T20:58:55.280Z,99332.50
2023-07-20T21:01:28.400Z,99336.95
2023-07-20T21:03:59.950Z,99335.95
2023-07-20T21:06:31.617Z,99335.80
2023-07-20T21:09:03.393Z,99333.73
2023-07-20T21:11:35.134Z,99333.10
2023-07-20T21:14:07.004Z,99335.02
2023-07-20T21:16:38.952Z,99334.31
2023-07-20T21:19:11.864Z,99336.02
2023-07-20T21:21:43.912Z,99333.48
2023-07-20T21:24:15.519Z,99331.23
2023-07-20T21:26:47.003Z,99331.21
2023-07-20T21:29:18.632Z,99332.38
2023-07-20T21:31:52.586Z,99333.37
2023-07-20T21:34:24.713Z,99336.12
2023-07-20T21:36:56.592Z,99337.15
2023-07-20T21:39:28.197Z,99337.55
2023-07-20T21:42:00.077Z,99335.34
2023-07-20T21:44:31.820Z,99337.36
2023-07-20T21:47:03.730Z,99335.80
2023-07-20T21:49:35.337Z,99341.05
2023-07-20T21:52:07.986Z,99339.35
2023-07-20T21:54:39.574Z,99337.27
2023-07-20T21:57:11.416Z,99334.58
2023-07-20T21:59:43.073Z,99332.17
2023-07-20T22:02:14.953Z,99332.52
2023-07-20T22:04:47.356Z,99329.44
2023-07-20T22:07:20.260Z,99330.41
2023-07-20T22:09:51.987Z,99333.11
2023-07-20T22:12:23.859Z,99332.38
2023-07-20T22:14:56.913Z,99332.19
2023-07-20T22:17:29.541Z,99329.06
2023-07-20T22:20:01.116Z,99325.52
2023-07-20T22:22:32.756Z,99322.52
2023-07-20T22:25:05.409Z,99315.52
2023-07-20T22:27:37.505Z,99316.44
2023-07-20T22:30:13.159Z,99313.16
2023-07-20T22:32:46.471Z,99311.30
2023-07-20T22:35:18.179Z,99306.89
2023-07-20T22:37:51.425Z,99304.69
2023-07-20T22:40:23.331Z,99305.44
2023-07-20T22:42:55.107Z,99301.02
2023-07-20T22:45:26.697Z,99301.95
2023-07-20T22:47:58.321Z,99303.83
2023-07-20T22:50:30.529Z,99297.21
2023-07-20T22:53:02.852Z,99297.60
2023-07-20T22:55:35.130Z,99295.20
2023-07-20T22:58:06.675Z,99294.05
2023-07-20T23:00:38.329Z,99295.66
2023-07-20T23:03:09.995Z,99296.20
2023-07-20T23:05:41.876Z,99293.78
2023-07-20T23:08:13.549Z,99297.87
2023-07-20T23:10:45.359Z,99295.05
2023-07-20T23:13:17.512Z,99293.70
2023-07-20T23:15:49.298Z,99294.11
2023-07-20T23:18:20.926Z,99295.13
2023-07-20T23:20:54.829Z,99292.79
2023-07-20T23:23:26.419Z,99293.86
2023-07-20T23:25:58.775Z,99288.88
2023-07-20T23:28:30.450Z,99279.13
2023-07-20T23:31:02.747Z,99278.61
2023-07-20T23:33:34.342Z,99277.88
2023-07-20T23:36:09.591Z,99278.43
2023-07-20T23:38:45.916Z,99273.45
2023-07-20T23:41:17.546Z,99269.98
2023-07-20T23:43:50.467Z,99270.17
2023-07-20T23:46:25.070Z,99276.14
2023-07-20T23:48:57.216Z,99279.54
2023-07-20T23:51:29.247Z,99280.19
2023-07-20T23:54:01.119Z,99278.15
2023-07-20T23:56:33.477Z,99276.02
2023-07-20T23:59:05.426Z,99274.99
